Time;durP1;ratioP1;P1;durP2;ratioP2;P2;SDS_P1;SDS_P2;PMS_P1;PMS_P2;Temp;Humidity;BMP_temperature;BMP_pressure;BME280_temperature;BME280_humidity;BME280_pressure;Samples;Min_cycle;Max_cycle;Signal;HPM_P1;HPM_P2
2021/12/26 00:01:35;;;;;;;12.60;10.13;;;;;;;;;;4954401;29;20256;-80
2021/12/26 00:04:04;;;;;;;10.30;9.17;;;;;;;;;;4954246;28;20741;-80
2021/12/26 00:06:31;;;;;;;13.53;10.70;;;;;;;;;;4954031;29;20281;-80
2021/12/26 00:09:01;;;;;;;13.40;10.37;;;;;;;;;;4940688;29;20245;-80
2021/12/26 00:11:29;;;;;;;11.87;9.90;;;;;;;;;;4935205;29;20191;-80
2021/12/26 00:13:56;;;;;;;11.80;9.63;;;;;;;;;;4935143;29;20293;-80
2021/12/26 00:16:24;;;;;;;13.67;10.97;;;;;;;;;;4948664;29;20221;-79
2021/12/26 00:18:51;;;;;;;13.80;10.50;;;;;;;;;;4954330;29;20587;-80
2021/12/26 00:21:20;;;;;;;35.30;22.67;;;;;;;;;;4950097;29;20230;-80
2021/12/26 00:23:48;;;;;;;15.70;12.00;;;;;;;;;;4938975;29;20686;-80
2021/12/26 00:26:19;;;;;;;13.73;10.80;;;;;;;;;;4946603;28;20731;-80
2021/12/26 00:28:46;;;;;;;12.83;9.23;;;;;;;;;;4946867;29;20285;-80
2021/12/26 00:31:16;;;;;;;13.90;10.07;;;;;;;;;;4939210;28;20203;-80
2021/12/26 00:33:44;;;;;;;10.97;8.97;;;;;;;;;;4922674;29;20206;-80
2021/12/26 00:36:11;;;;;;;12.37;10.13;;;;;;;;;;4952325;29;20946;-80
2021/12/26 00:38:38;;;;;;;12.03;9.77;;;;;;;;;;4941485;29;20202;-81
2021/12/26 00:41:05;;;;;;;12.10;10.03;;;;;;;;;;4950088;29;20216;-81
2021/12/26 00:43:34;;;;;;;13.03;9.77;;;;;;;;;;4937997;29;20193;-81
2021/12/26 00:46:01;;;;;;;10.17;9.17;;;;;;;;;;4948653;29;20234;-80
2021/12/26 00:48:29;;;;;;;10.13;9.07;;;;;;;;;;4934830;29;20202;-80
2021/12/26 00:50:56;;;;;;;10.93;8.77;;;;;;;;;;4935250;29;20625;-81
2021/12/26 00:53:24;;;;;;;11.40;8.17;;;;;;;;;;4935094;29;20209;-81
2021/12/26 00:55:51;;;;;;;10.70;9.00;;;;;;;;;;4948964;29;20232;-80
2021/12/26 00:58:19;;;;;;;9.43;8.47;;;;;;;;;;4937963;28;20202;-80
2021/12/26 01:00:50;;;;;;;12.27;9.53;;;;;;;;;;4947820;29;20277;-80
2021/12/26 01:03:18;;;;;;;13.27;10.23;;;;;;;;;;4934847;29;20245;-80
2021/12/26 01:05:49;;;;;;;11.70;9.57;;;;;;;;;;4953563;29;20248;-80
2021/12/26 01:08:19;;;;;;;17.57;11.90;;;;;;;;;;4953805;29;20186;-80
2021/12/26 01:10:50;;;;;;;11.73;10.03;;;;;;;;;;4953811;29;20206;-80
2021/12/26 01:13:24;;;;;;;13.30;11.10;;;;;;;;;;4954208;28;20197;-80
2021/12/26 01:15:56;;;;;;;13.27;10.27;;;;;;;;;;4953909;28;20218;-80
2021/12/26 01:18:25;;;;;;;10.70;9.60;;;;;;;;;;4939124;29;20194;-80
2021/12/26 01:20:58;;;;;;;10.73;9.60;;;;;;;;;;4938210;29;20217;-80
2021/12/26 01:23:27;;;;;;;12.77;9.53;;;;;;;;;;4904846;29;20608;-80
2021/12/26 01:25:55;;;;;;;10.70;8.00;;;;;;;;;;4911808;29;20228;-79
2021/12/26 01:28:24;;;;;;;10.70;8.23;;;;;;;;;;4911449;29;20245;-79
2021/12/26 01:30:52;;;;;;;9.77;8.77;;;;;;;;;;4904108;29;20212;-79
2021/12/26 01:33:20;;;;;;;12.40;9.93;;;;;;;;;;4903105;29;20673;-79
2021/12/26 01:35:48;;;;;;;11.77;8.87;;;;;;;;;;4919267;29;20286;-80
2021/12/26 01:38:17;;;;;;;10.40;8.80;;;;;;;;;;4919535;29;20195;-80
2021/12/26 01:40:49;;;;;;;12.73;10.57;;;;;;;;;;4915260;29;20263;-80
2021/12/26 01:43:16;;;;;;;11.83;10.10;;;;;;;;;;4908009;29;20201;-80
2021/12/26 01:45:44;;;;;;;12.33;9.80;;;;;;;;;;4907455;29;20283;-79
2021/12/26 01:48:13;;;;;;;11.73;9.43;;;;;;;;;;4915290;29;20608;-80
2021/12/26 01:50:41;;;;;;;11.87;8.47;;;;;;;;;;4919252;29;20195;-80
2021/12/26 01:53:10;;;;;;;10.47;9.00;;;;;;;;;;4918989;29;20298;-79
2021/12/26 01:55:40;;;;;;;11.03;8.33;;;;;;;;;;4919061;29;20262;-80
2021/12/26 01:58:09;;;;;;;11.53;9.77;;;;;;;;;;4909111;29;20198;-79
2021/12/26 02:00:37;;;;;;;10.87;8.20;;;;;;;;;;4899635;29;20569;-79
2021/12/26 02:03:05;;;;;;;10.50;9.20;;;;;;;;;;4899905;29;20231;-79
2021/12/26 02:05:34;;;;;;;10.87;8.70;;;;;;;;;;4899698;29;20208;-79
2021/12/26 02:08:01;;;;;;;11.87;10.40;;;;;;;;;;4910269;29;20195;-79
2021/12/26 02:10:28;;;;;;;13.80;10.67;;;;;;;;;;4903930;29;20200;-79
2021/12/26 02:12:56;;;;;;;11.53;10.33;;;;;;;;;;4914836;29;20238;-79
2021/12/26 02:15:23;;;;;;;15.20;11.40;;;;;;;;;;4899597;29;20706;-79
2021/12/26 02:17:50;;;;;;;12.37;10.33;;;;;;;;;;4899777;29;20648;-79
2021/12/26 02:20:29;;;;;;;16.30;10.13;;;;;;;;;;4914812;29;20706;-79
2021/12/26 02:23:01;;;;;;;12.07;9.83;;;;;;;;;;4945171;29;20222;-79
2021/12/26 02:27:30;;;;;;;12.20;9.57;;;;;;;;;;4946715;29;20206;-79
2021/12/26 02:28:18;;;;;;;12.93;8.63;;;;;;;;;;4939401;29;20205;-79
2021/12/26 02:30:46;;;;;;;11.63;8.53;;;;;;;;;;4956239;28;20206;-78
2021/12/26 02:33:13;;;;;;;9.83;8.83;;;;;;;;;;4956159;29;20206;-79
2021/12/26 02:35:43;;;;;;;10.03;8.37;;;;;;;;;;4950605;29;20222;-79
2021/12/26 02:38:11;;;;;;;9.37;8.37;;;;;;;;;;4938230;29;20290;-79
2021/12/26 02:40:38;;;;;;;10.67;8.30;;;;;;;;;;4950854;29;20241;-78
2021/12/26 02:43:06;;;;;;;9.83;7.90;;;;;;;;;;4945096;29;20252;-78
2021/12/26 02:45:34;;;;;;;9.47;7.70;;;;;;;;;;4943321;29;20216;-78
2021/12/26 02:48:02;;;;;;;10.80;8.90;;;;;;;;;;4936701;29;20195;-78
2021/12/26 02:50:31;;;;;;;11.73;9.10;;;;;;;;;;4936798;29;20319;-78
2021/12/26 02:53:02;;;;;;;8.70;7.30;;;;;;;;;;4947024;29;20696;-79
2021/12/26 02:55:29;;;;;;;10.23;8.30;;;;;;;;;;4940707;29;20233;-78
2021/12/26 02:57:59;;;;;;;9.60;8.57;;;;;;;;;;4952061;29;20202;-79
2021/12/26 03:00:29;;;;;;;9.20;7.67;;;;;;;;;;4937061;29;20194;-78
2021/12/26 03:02:59;;;;;;;16.97;13.20;;;;;;;;;;4954898;29;20201;-79
2021/12/26 03:05:28;;;;;;;12.43;8.90;;;;;;;;;;4955754;28;20212;-79
2021/12/26 03:07:56;;;;;;;13.20;10.20;;;;;;;;;;4955441;29;20206;-78
2021/12/26 03:10:27;;;;;;;14.80;11.10;;;;;;;;;;4945895;29;20199;-78
2021/12/26 03:12:57;;;;;;;10.50;8.80;;;;;;;;;;4949753;29;20222;-78
2021/12/26 03:15:25;;;;;;;10.10;8.30;;;;;;;;;;4939222;29;20213;-78
2021/12/26 03:17:53;;;;;;;9.53;8.53;;;;;;;;;;4955697;29;20264;-78
2021/12/26 03:20:22;;;;;;;9.83;8.33;;;;;;;;;;4955332;29;20205;-79
2021/12/26 03:22:50;;;;;;;8.43;7.10;;;;;;;;;;4955353;29;20267;-78
2021/12/26 03:25:19;;;;;;;7.50;6.80;;;;;;;;;;4955377;29;20208;-78
2021/12/26 03:27:49;;;;;;;8.97;7.37;;;;;;;;;;4939002;29;20202;-79
2021/12/26 03:30:19;;;;;;;9.40;7.20;;;;;;;;;;4935821;29;20293;-78
2021/12/26 03:32:46;;;;;;;9.13;7.67;;;;;;;;;;4936219;29;20634;-78
2021/12/26 03:35:14;;;;;;;10.00;6.40;;;;;;;;;;4935980;29;20310;-79
2021/12/26 03:37:42;;;;;;;8.33;6.53;;;;;;;;;;4942850;29;20228;-78
2021/12/26 03:40:10;;;;;;;7.37;6.63;;;;;;;;;;4942782;29;20262;-78
2021/12/26 03:42:37;;;;;;;7.50;6.20;;;;;;;;;;4950240;29;20209;-79
2021/12/26 03:45:09;;;;;;;7.90;6.30;;;;;;;;;;4936137;29;20206;-79
2021/12/26 03:47:37;;;;;;;9.57;8.03;;;;;;;;;;4935771;29;20269;-79
2021/12/26 03:50:06;;;;;;;10.10;7.50;;;;;;;;;;4946630;29;20264;-79
2021/12/26 03:52:33;;;;;;;8.30;7.30;;;;;;;;;;4945538;29;20202;-78
2021/12/26 03:55:00;;;;;;;9.30;8.33;;;;;;;;;;4948526;29;20213;-79
2021/12/26 03:57:28;;;;;;;12.43;10.00;;;;;;;;;;4939025;29;20230;-78
2021/12/26 03:59:55;;;;;;;10.60;8.90;;;;;;;;;;4954451;29;20202;-78
2021/12/26 04:02:24;;;;;;;11.17;9.93;;;;;;;;;;4951933;28;20202;-78
2021/12/26 04:04:51;;;;;;;15.17;11.03;;;;;;;;;;4935417;29;20711;-79
2021/12/26 04:07:19;;;;;;;14.23;9.17;;;;;;;;;;4935473;29;20695;-79
2021/12/26 04:09:46;;;;;;;12.03;9.87;;;;;;;;;;4951060;29;20200;-79
2021/12/26 04:12:13;;;;;;;9.57;8.00;;;;;;;;;;4939932;29;20206;-78
2021/12/26 04:14:41;;;;;;;10.83;7.23;;;;;;;;;;4945428;29;20747;-79
2021/12/26 04:17:08;;;;;;;7.73;6.53;;;;;;;;;;4935181;29;20226;-78
2021/12/26 04:19:37;;;;;;;8.87;7.03;;;;;;;;;;4934952;29;20567;-78
2021/12/26 04:22:04;;;;;;;8.37;7.53;;;;;;;;;;4954025;29;20234;-78
2021/12/26 04:24:32;;;;;;;6.97;6.33;;;;;;;;;;4953833;29;20240;-79
2021/12/26 04:26:59;;;;;;;8.57;6.97;;;;;;;;;;4938238;29;20253;-79
2021/12/26 04:29:26;;;;;;;8.93;7.43;;;;;;;;;;4948559;29;20234;-78
2021/12/26 04:31:53;;;;;;;8.30;7.50;;;;;;;;;;4944365;29;20260;-78
2021/12/26 04:34:21;;;;;;;10.20;6.90;;;;;;;;;;4954058;29;20794;-78
2021/12/26 04:36:49;;;;;;;9.60;7.73;;;;;;;;;;4953963;29;20313;-78
2021/12/26 04:39:17;;;;;;;8.40;6.77;;;;;;;;;;4946621;29;20254;-78
2021/12/26 04:41:46;;;;;;;8.07;7.20;;;;;;;;;;4935117;29;20262;-78
2021/12/26 04:44:13;;;;;;;8.23;7.37;;;;;;;;;;4934794;29;20204;-79
2021/12/26 04:46:41;;;;;;;7.97;6.93;;;;;;;;;;4935311;29;20578;-78
2021/12/26 04:49:08;;;;;;;8.73;6.83;;;;;;;;;;4934779;29;20210;-78
2021/12/26 04:51:35;;;;;;;6.70;6.00;;;;;;;;;;4947315;28;20205;-78
2021/12/26 04:54:04;;;;;;;8.33;7.03;;;;;;;;;;4955677;29;20209;-79
2021/12/26 04:56:31;;;;;;;10.80;6.77;;;;;;;;;;4944513;29;20221;-78
2021/12/26 04:58:59;;;;;;;27.13;17.60;;;;;;;;;;4948024;29;20281;-79
2021/12/26 05:01:26;;;;;;;14.67;11.70;;;;;;;;;;4951986;29;20213;-81
2021/12/26 05:03:53;;;;;;;19.23;15.07;;;;;;;;;;4957738;29;20201;-83
2021/12/26 05:06:21;;;;;;;18.33;14.50;;;;;;;;;;4957683;29;20237;-81
2021/12/26 05:08:48;;;;;;;12.27;9.87;;;;;;;;;;4942688;29;20195;-80
2021/12/26 05:11:17;;;;;;;8.43;6.90;;;;;;;;;;4953988;29;20301;-80
2021/12/26 05:13:44;;;;;;;9.77;6.47;;;;;;;;;;4944532;29;20240;-79
2021/12/26 05:16:11;;;;;;;10.93;8.70;;;;;;;;;;4957303;29;20297;-79
2021/12/26 05:18:38;;;;;;;14.53;10.67;;;;;;;;;;4957380;29;20746;-80
2021/12/26 05:21:06;;;;;;;9.80;8.80;;;;;;;;;;4943262;29;20206;-80
2021/12/26 05:23:33;;;;;;;9.00;7.60;;;;;;;;;;4938460;29;20194;-79
2021/12/26 05:26:01;;;;;;;8.47;7.13;;;;;;;;;;4936644;29;20258;-79
2021/12/26 05:28:29;;;;;;;10.47;7.47;;;;;;;;;;4950044;29;20640;-79
2021/12/26 05:30:56;;;;;;;13.33;10.77;;;;;;;;;;4925989;29;20233;-79
2021/12/26 05:33:24;;;;;;;12.27;9.60;;;;;;;;;;4953848;29;20201;-79
2021/12/26 05:35:51;;;;;;;13.03;9.67;;;;;;;;;;4944698;29;20213;-80
2021/12/26 05:38:18;;;;;;;12.07;10.37;;;;;;;;;;4946635;29;20232;-79
2021/12/26 05:40:45;;;;;;;12.83;9.83;;;;;;;;;;4951801;29;20233;-79
2021/12/26 05:43:13;;;;;;;14.63;11.40;;;;;;;;;;4939282;29;20206;-79
2021/12/26 05:45:41;;;;;;;20.30;15.17;;;;;;;;;;4938056;29;20202;-79
2021/12/26 05:48:09;;;;;;;34.93;22.27;;;;;;;;;;4938001;29;20202;-79
2021/12/26 05:50:36;;;;;;;39.37;24.10;;;;;;;;;;4937686;29;20371;-80
2021/12/26 05:53:04;;;;;;;39.53;26.07;;;;;;;;;;4947923;29;20198;-80
2021/12/26 05:55:32;;;;;;;31.03;20.77;;;;;;;;;;4942426;28;20205;-80
2021/12/26 05:57:59;;;;;;;26.60;20.00;;;;;;;;;;4953293;29;20300;-80
2021/12/26 06:00:26;;;;;;;22.03;17.90;;;;;;;;;;4938681;29;20211;-79
2021/12/26 06:02:55;;;;;;;25.30;17.90;;;;;;;;;;4956002;28;20208;-79
2021/12/26 06:05:23;;;;;;;15.00;12.00;;;;;;;;;;4957078;29;20240;-79
2021/12/26 06:07:50;;;;;;;13.30;10.30;;;;;;;;;;4956670;29;20257;-79
2021/12/26 06:10:18;;;;;;;45.83;31.90;;;;;;;;;;4925102;29;20583;-80
2021/12/26 06:12:45;;;;;;;51.53;35.43;;;;;;;;;;4949199;28;20230;-80
2021/12/26 06:15:13;;;;;;;28.70;22.07;;;;;;;;;;4948020;29;20564;-80
2021/12/26 06:17:40;;;;;;;22.53;18.23;;;;;;;;;;4956424;29;20282;-79
2021/12/26 06:20:14;;;;;;;21.37;16.40;;;;;;;;;;4956765;29;20334;-80
2021/12/26 06:22:42;;;;;;;17.97;13.13;;;;;;;;;;4939042;29;20715;-80
2021/12/26 06:25:10;;;;;;;84.67;68.37;;;;;;;;;;4937206;29;20206;-80
2021/12/26 06:27:37;;;;;;;37.70;28.77;;;;;;;;;;4950973;29;20581;-80
2021/12/26 06:30:06;;;;;;;20.87;16.50;;;;;;;;;;4940241;29;20257;-80
2021/12/26 06:32:33;;;;;;;27.20;20.17;;;;;;;;;;4950308;28;20205;-80
2021/12/26 06:35:01;;;;;;;26.27;18.20;;;;;;;;;;4937107;29;20230;-80
2021/12/26 06:37:30;;;;;;;36.27;25.73;;;;;;;;;;4936717;29;20230;-80
2021/12/26 06:39:59;;;;;;;34.80;27.57;;;;;;;;;;4951803;29;20598;-81
2021/12/26 06:42:27;;;;;;;28.87;23.80;;;;;;;;;;4956216;28;20208;-81
2021/12/26 06:44:54;;;;;;;28.87;22.73;;;;;;;;;;4955832;29;20671;-80
2021/12/26 06:47:22;;;;;;;36.00;26.43;;;;;;;;;;4941403;29;20289;-80
2021/12/26 06:49:50;;;;;;;28.93;22.87;;;;;;;;;;4936242;29;20286;-80
2021/12/26 06:52:17;;;;;;;32.00;24.33;;;;;;;;;;4936867;29;20213;-80
2021/12/26 06:54:46;;;;;;;28.03;19.90;;;;;;;;;;4936651;29;20202;-80
2021/12/26 06:57:13;;;;;;;30.00;22.57;;;;;;;;;;4936511;29;20218;-80
2021/12/26 06:59:41;;;;;;;50.60;32.40;;;;;;;;;;4936400;29;20198;-80
2021/12/26 07:02:08;;;;;;;81.43;49.67;;;;;;;;;;4936256;29;20298;-81
2021/12/26 07:04:36;;;;;;;114.53;63.73;;;;;;;;;;4930682;29;20274;-80
2021/12/26 07:07:03;;;;;;;214.73;111.70;;;;;;;;;;4936378;29;20222;-80
2021/12/26 07:09:31;;;;;;;71.73;45.80;;;;;;;;;;4933204;29;20202;-81
2021/12/26 07:12:00;;;;;;;52.00;33.70;;;;;;;;;;4935498;29;20206;-79
2021/12/26 07:14:27;;;;;;;145.53;88.40;;;;;;;;;;4935716;29;20594;-80
2021/12/26 07:16:54;;;;;;;50.23;35.50;;;;;;;;;;4933002;29;20203;-81
2021/12/26 07:19:21;;;;;;;81.27;46.00;;;;;;;;;;4937685;29;20199;-81
2021/12/26 07:21:49;;;;;;;113.20;66.67;;;;;;;;;;4954688;29;20241;-80
2021/12/26 07:24:16;;;;;;;124.57;68.00;;;;;;;;;;4954720;29;20198;-80
2021/12/26 07:26:43;;;;;;;231.97;115.47;;;;;;;;;;4954885;28;20197;-80
2021/12/26 07:29:12;;;;;;;210.17;110.30;;;;;;;;;;4954812;29;20220;-80
2021/12/26 07:31:39;;;;;;;192.80;100.33;;;;;;;;;;4937362;29;20694;-80
2021/12/26 07:34:06;;;;;;;177.03;96.83;;;;;;;;;;4934455;29;20210;-81
2021/12/26 07:36:33;;;;;;;137.90;78.07;;;;;;;;;;4935557;29;20210;-81
2021/12/26 07:39:01;;;;;;;90.00;56.73;;;;;;;;;;4942854;29;20227;-81
2021/12/26 07:41:28;;;;;;;75.53;46.00;;;;;;;;;;4954906;29;20234;-80
2021/12/26 07:43:55;;;;;;;67.27;42.57;;;;;;;;;;4953908;28;20206;-81
2021/12/26 07:46:24;;;;;;;74.63;47.53;;;;;;;;;;4954443;29;20194;-81
2021/12/26 07:48:51;;;;;;;70.27;44.17;;;;;;;;;;4940036;28;20213;-83
2021/12/26 07:51:19;;;;;;;31.57;24.07;;;;;;;;;;4948863;29;20224;-85
2021/12/26 07:53:49;;;;;;;27.20;19.63;;;;;;;;;;4935891;29;20754;-85
2021/12/26 07:56:16;;;;;;;55.97;40.03;;;;;;;;;;4935446;29;20285;-84
2021/12/26 07:58:43;;;;;;;48.07;35.20;;;;;;;;;;4935047;29;20226;-84
2021/12/26 08:01:10;;;;;;;37.23;29.00;;;;;;;;;;4941973;29;20201;-83
2021/12/26 08:03:42;;;;;;;36.23;26.53;;;;;;;;;;4953397;29;20390;-83
2021/12/26 08:06:13;;;;;;;21.93;19.03;;;;;;;;;;4954070;28;20233;-82
2021/12/26 08:08:40;;;;;;;20.97;16.93;;;;;;;;;;4933521;28;20225;-80
2021/12/26 08:11:07;;;;;;;20.30;15.23;;;;;;;;;;4934734;29;20285;-79
2021/12/26 08:13:35;;;;;;;25.50;23.00;;;;;;;;;;4936214;29;20199;-80
2021/12/26 08:16:02;;;;;;;19.50;15.80;;;;;;;;;;4934905;29;20692;-79
2021/12/26 08:18:29;;;;;;;26.13;20.73;;;;;;;;;;4947218;29;20221;-79
2021/12/26 08:20:58;;;;;;;36.00;28.97;;;;;;;;;;4953679;29;20204;-79
2021/12/26 08:23:25;;;;;;;36.53;29.53;;;;;;;;;;4953963;29;20556;-79
2021/12/26 08:25:52;;;;;;;25.03;20.83;;;;;;;;;;4943417;28;20203;-79
2021/12/26 08:28:19;;;;;;;31.83;24.47;;;;;;;;;;4934870;29;20202;-79
2021/12/26 08:30:46;;;;;;;40.87;30.10;;;;;;;;;;4939863;29;20208;-79
2021/12/26 08:33:14;;;;;;;33.27;25.23;;;;;;;;;;4954416;29;20205;-80
2021/12/26 08:35:43;;;;;;;40.23;25.27;;;;;;;;;;4954100;29;20198;-79
2021/12/26 08:38:13;;;;;;;24.43;17.07;;;;;;;;;;4953676;29;20222;-80
2021/12/26 08:40:40;;;;;;;26.10;19.90;;;;;;;;;;4939191;29;20225;-78
2021/12/26 08:43:08;;;;;;;26.30;21.97;;;;;;;;;;4934071;29;20203;-79
2021/12/26 08:45:36;;;;;;;28.13;22.40;;;;;;;;;;4936085;29;20651;-80
2021/12/26 08:48:03;;;;;;;19.07;14.57;;;;;;;;;;4944454;29;20198;-80
2021/12/26 08:50:30;;;;;;;17.47;10.47;;;;;;;;;;4942153;28;20210;-81
2021/12/26 08:52:58;;;;;;;21.77;17.20;;;;;;;;;;4934477;29;20205;-81
2021/12/26 08:55:27;;;;;;;19.10;17.10;;;;;;;;;;4934609;29;20224;-80
2021/12/26 08:57:55;;;;;;;16.47;14.80;;;;;;;;;;4934414;29;20226;-80
2021/12/26 09:00:24;;;;;;;16.37;10.93;;;;;;;;;;4934631;29;20691;-79
2021/12/26 09:02:52;;;;;;;16.07;12.03;;;;;;;;;;4934655;29;20198;-80
2021/12/26 09:05:19;;;;;;;17.17;11.97;;;;;;;;;;4934982;29;20634;-79
2021/12/26 09:07:46;;;;;;;10.33;8.63;;;;;;;;;;4931170;29;20209;-79
2021/12/26 09:10:14;;;;;;;10.43;9.27;;;;;;;;;;4933431;29;20684;-79
2021/12/26 09:12:44;;;;;;;27.50;22.57;;;;;;;;;;4934240;29;20329;-79
2021/12/26 09:15:13;;;;;;;55.53;33.50;;;;;;;;;;4934260;29;20202;-79
2021/12/26 09:17:41;;;;;;;45.27;29.50;;;;;;;;;;4934791;29;20334;-80
2021/12/26 09:20:10;;;;;;;52.90;44.33;;;;;;;;;;4931367;29;20198;-80
2021/12/26 09:22:37;;;;;;;28.60;23.60;;;;;;;;;;4934918;29;20226;-79
2021/12/26 09:25:05;;;;;;;55.27;45.60;;;;;;;;;;4935779;29;20215;-80
2021/12/26 09:27:32;;;;;;;94.10;67.03;;;;;;;;;;4934846;29;20191;-80
2021/12/26 09:30:01;;;;;;;59.33;48.67;;;;;;;;;;4934969;29;20233;-80
2021/12/26 09:32:28;;;;;;;54.43;44.03;;;;;;;;;;4932289;29;20583;-80
2021/12/26 09:34:56;;;;;;;54.03;43.53;;;;;;;;;;4934769;29;20213;-80
2021/12/26 09:37:23;;;;;;;42.27;37.30;;;;;;;;;;4936226;29;20213;-80
2021/12/26 09:39:50;;;;;;;39.90;35.57;;;;;;;;;;4937103;29;20223;-79
2021/12/26 09:42:17;;;;;;;39.43;35.07;;;;;;;;;;4937808;29;20206;-80
2021/12/26 09:44:45;;;;;;;43.37;34.93;;;;;;;;;;4933521;29;20207;-80
2021/12/26 09:47:14;;;;;;;55.07;42.47;;;;;;;;;;4937780;29;20210;-79
2021/12/26 09:49:41;;;;;;;52.47;37.10;;;;;;;;;;4943769;29;20591;-80
2021/12/26 09:52:09;;;;;;;35.23;27.73;;;;;;;;;;4946883;29;20241;-80
2021/12/26 09:54:36;;;;;;;44.40;35.70;;;;;;;;;;4941169;29;20203;-80
2021/12/26 09:57:05;;;;;;;34.60;26.83;;;;;;;;;;4937466;29;20222;-80
2021/12/26 09:59:33;;;;;;;70.97;48.67;;;;;;;;;;4937244;29;20703;-80
2021/12/26 10:02:08;;;;;;;24.73;20.47;;;;;;;;;;4937454;29;20675;-80
2021/12/26 10:04:40;;;;;;;27.17;21.10;;;;;;;;;;4937482;29;20196;-80
2021/12/26 10:07:11;;;;;;;23.17;20.77;;;;;;;;;;4937215;29;20195;-80
2021/12/26 10:09:39;;;;;;;53.83;37.10;;;;;;;;;;4941561;29;20229;-80
2021/12/26 10:12:08;;;;;;;66.93;43.67;;;;;;;;;;4955114;28;20205;-80
2021/12/26 10:14:38;;;;;;;49.57;42.30;;;;;;;;;;4955920;29;20197;-80
2021/12/26 10:17:08;;;;;;;43.80;36.10;;;;;;;;;;4956338;29;20190;-81
2021/12/26 10:19:38;;;;;;;40.17;34.10;;;;;;;;;;4956462;29;20304;-80
2021/12/26 10:22:06;;;;;;;51.27;37.47;;;;;;;;;;4955998;29;20234;-81
2021/12/26 10:24:35;;;;;;;45.83;35.90;;;;;;;;;;4956277;29;20699;-81
2021/12/26 10:27:05;;;;;;;46.50;36.07;;;;;;;;;;4956368;28;20686;-81
2021/12/26 10:29:33;;;;;;;38.43;29.73;;;;;;;;;;4956151;28;20201;-80
2021/12/26 10:32:08;;;;;;;61.57;43.97;;;;;;;;;;4956109;28;20201;-80
2021/12/26 10:34:39;;;;;;;48.70;36.30;;;;;;;;;;4956348;28;20197;-80
2021/12/26 10:37:10;;;;;;;114.13;66.93;;;;;;;;;;4956028;28;20192;-80
2021/12/26 10:39:40;;;;;;;85.93;57.97;;;;;;;;;;4956326;28;20232;-80
2021/12/26 10:42:10;;;;;;;77.87;53.00;;;;;;;;;;4945698;29;20218;-80
2021/12/26 10:44:41;;;;;;;92.23;68.43;;;;;;;;;;4936435;29;20202;-79
2021/12/26 10:47:11;;;;;;;73.33;56.37;;;;;;;;;;4935240;29;20182;-80
2021/12/26 10:49:43;;;;;;;38.73;29.60;;;;;;;;;;4934432;29;20203;-80
2021/12/26 10:52:12;;;;;;;37.63;29.73;;;;;;;;;;4936419;29;20694;-81
2021/12/26 10:54:41;;;;;;;34.60;26.87;;;;;;;;;;4936477;29;20199;-81
2021/12/26 10:57:12;;;;;;;34.73;29.73;;;;;;;;;;4936358;29;20687;-80
2021/12/26 10:59:44;;;;;;;16.03;13.90;;;;;;;;;;4936552;29;20207;-80
2021/12/26 11:02:12;;;;;;;11.40;10.20;;;;;;;;;;4936564;29;20198;-80
2021/12/26 11:05:05;;;;;;;12.57;10.23;;;;;;;;;;4936348;29;20293;-80
2021/12/26 11:07:41;;;;;;;44.50;34.60;;;;;;;;;;4936531;29;20195;-80
2021/12/26 11:10:11;;;;;;;20.90;17.73;;;;;;;;;;4936456;29;20259;-80
2021/12/26 11:12:41;;;;;;;46.80;32.17;;;;;;;;;;4936382;29;20286;-79
2021/12/26 11:15:10;;;;;;;46.70;41.60;;;;;;;;;;4936787;29;20293;-80
2021/12/26 11:17:42;;;;;;;50.50;37.50;;;;;;;;;;4936140;29;20293;-80
2021/12/26 11:20:19;;;;;;;36.93;32.93;;;;;;;;;;4936328;29;20215;-80
2021/12/26 11:22:47;;;;;;;83.33;56.10;;;;;;;;;;4935829;29;20280;-80
2021/12/26 11:25:14;;;;;;;71.00;48.93;;;;;;;;;;4935914;29;20209;-79
2021/12/26 11:27:41;;;;;;;54.93;39.57;;;;;;;;;;4935844;29;20252;-80
2021/12/26 11:30:10;;;;;;;30.07;26.77;;;;;;;;;;4935868;29;20575;-80
2021/12/26 11:32:38;;;;;;;83.63;74.27;;;;;;;;;;4935689;29;20308;-80
2021/12/26 11:35:08;;;;;;;57.40;46.73;;;;;;;;;;4936095;29;20586;-80
2021/12/26 11:37:37;;;;;;;46.70;36.40;;;;;;;;;;4936034;29;20282;-81
2021/12/26 11:40:08;;;;;;;45.17;36.87;;;;;;;;;;4935566;29;20230;-80
2021/12/26 11:42:56;;;;;;;29.53;22.90;;;;;;;;;;4935712;29;20679;-80
2021/12/26 11:45:30;;;;;;;32.57;25.83;;;;;;;;;;4935516;29;20719;-80
2021/12/26 11:48:22;;;;;;;17.90;16.00;;;;;;;;;;4935583;29;20194;-80
2021/12/26 11:51:01;;;;;;;17.87;15.97;;;;;;;;;;4935662;29;20229;-80
2021/12/26 11:53:40;;;;;;;32.07;28.60;;;;;;;;;;4935490;29;20286;-82
2021/12/26 11:56:24;;;;;;;22.57;19.50;;;;;;;;;;4935369;29;20250;-81
2021/12/26 11:59:36;;;;;;;36.77;27.17;;;;;;;;;;4935526;29;20241;-81
2021/12/26 12:02:04;;;;;;;22.63;17.67;;;;;;;;;;4924662;29;20209;-80
2021/12/26 12:04:32;;;;;;;22.67;18.53;;;;;;;;;;4935056;29;20289;-80
2021/12/26 12:07:06;;;;;;;41.47;32.87;;;;;;;;;;4935125;29;20588;-80
2021/12/26 12:09:36;;;;;;;36.33;30.43;;;;;;;;;;4935054;29;20242;-79
2021/12/26 12:12:09;;;;;;;36.73;32.77;;;;;;;;;;4935156;29;20195;-80
2021/12/26 12:14:52;;;;;;;37.93;26.63;;;;;;;;;;4935165;29;20194;-80
2021/12/26 12:17:23;;;;;;;37.40;26.50;;;;;;;;;;4935617;29;20261;-80
2021/12/26 12:20:23;;;;;;;39.27;27.67;;;;;;;;;;4934986;29;20217;-80
2021/12/26 12:23:12;;;;;;;23.83;21.30;;;;;;;;;;4895028;29;20342;-79
2021/12/26 12:25:48;;;;;;;36.40;26.30;;;;;;;;;;4895023;29;20196;-80
2021/12/26 12:28:18;;;;;;;48.03;33.13;;;;;;;;;;4894898;29;20211;-80
2021/12/26 12:30:48;;;;;;;35.03;23.20;;;;;;;;;;4894895;29;20210;-79
2021/12/26 12:33:22;;;;;;;22.10;17.73;;;;;;;;;;4894795;29;20210;-80
2021/12/26 12:35:52;;;;;;;47.77;36.97;;;;;;;;;;4894888;29;20228;-80
2021/12/26 12:38:28;;;;;;;15.27;12.77;;;;;;;;;;4894906;29;20207;-79
2021/12/26 12:40:58;;;;;;;13.43;11.67;;;;;;;;;;4895114;29;20200;-80
2021/12/26 12:43:27;;;;;;;19.77;17.37;;;;;;;;;;4894726;29;20239;-79
2021/12/26 12:46:09;;;;;;;20.07;15.47;;;;;;;;;;4894897;29;20200;-80
2021/12/26 12:48:45;;;;;;;24.53;21.93;;;;;;;;;;4894987;29;20197;-80
2021/12/26 12:51:32;;;;;;;35.60;27.93;;;;;;;;;;4894932;29;20203;-80
2021/12/26 12:54:01;;;;;;;61.67;54.30;;;;;;;;;;4918450;29;20202;-80
2021/12/26 12:56:47;;;;;;;33.97;28.03;;;;;;;;;;4934913;29;20225;-80
2021/12/26 12:59:28;;;;;;;18.53;16.40;;;;;;;;;;4934867;29;20245;-80
2021/12/26 13:01:58;;;;;;;22.00;17.43;;;;;;;;;;4934580;29;20297;-80
2021/12/26 13:04:27;;;;;;;17.63;13.97;;;;;;;;;;4934436;29;20203;-80
2021/12/26 13:06:57;;;;;;;15.07;12.63;;;;;;;;;;4935746;29;20202;-79
2021/12/26 13:09:25;;;;;;;15.37;13.77;;;;;;;;;;4935405;29;20261;-80
2021/12/26 13:11:58;;;;;;;16.40;13.90;;;;;;;;;;4935997;29;20203;-80
2021/12/26 13:14:37;;;;;;;16.37;13.97;;;;;;;;;;4937848;29;20191;-81
2021/12/26 13:17:05;;;;;;;17.27;15.47;;;;;;;;;;4938549;29;20202;-79
2021/12/26 13:19:32;;;;;;;19.90;15.20;;;;;;;;;;4957281;28;20748;-80
2021/12/26 13:22:03;;;;;;;20.60;17.70;;;;;;;;;;4944720;29;20234;-83
2021/12/26 13:24:32;;;;;;;19.37;16.03;;;;;;;;;;4937582;29;20195;-81
2021/12/26 13:27:01;;;;;;;49.57;44.17;;;;;;;;;;4937128;29;20652;-81
2021/12/26 13:29:29;;;;;;;36.53;32.10;;;;;;;;;;4936545;29;20221;-81
2021/12/26 13:31:56;;;;;;;74.80;52.80;;;;;;;;;;4937216;29;20202;-81
2021/12/26 13:34:24;;;;;;;136.40;90.30;;;;;;;;;;4936139;29;20209;-82
2021/12/26 13:36:51;;;;;;;22.67;17.90;;;;;;;;;;4934293;29;20229;-82
2021/12/26 13:39:20;;;;;;;51.00;37.70;;;;;;;;;;4936410;29;20302;-82
2021/12/26 13:41:48;;;;;;;77.63;55.63;;;;;;;;;;4936518;29;20286;-82
2021/12/26 13:44:18;;;;;;;67.83;45.30;;;;;;;;;;4940359;29;20215;-82
2021/12/26 13:46:46;;;;;;;55.77;42.50;;;;;;;;;;4934040;29;20199;-82
2021/12/26 13:49:14;;;;;;;85.20;61.80;;;;;;;;;;4936861;29;20213;-81
2021/12/26 13:51:44;;;;;;;69.17;49.90;;;;;;;;;;4936962;29;20266;-82
2021/12/26 13:54:22;;;;;;;56.63;39.00;;;;;;;;;;4936161;29;20730;-83
2021/12/26 13:56:51;;;;;;;46.13;36.47;;;;;;;;;;4936390;29;20195;-82
2021/12/26 13:59:30;;;;;;;45.73;36.67;;;;;;;;;;4932560;29;20238;-83
2021/12/26 14:01:58;;;;;;;47.27;36.20;;;;;;;;;;4922999;29;20597;-82
2021/12/26 14:04:25;;;;;;;45.60;35.00;;;;;;;;;;4918543;29;20203;-81
2021/12/26 14:06:53;;;;;;;40.87;32.67;;;;;;;;;;4943494;29;20591;-81
2021/12/26 14:09:20;;;;;;;34.53;28.63;;;;;;;;;;4956702;29;20202;-78
2021/12/26 14:11:48;;;;;;;29.73;23.97;;;;;;;;;;4956364;28;20204;-81
2021/12/26 14:14:21;;;;;;;38.17;28.03;;;;;;;;;;4956318;29;20314;-80
2021/12/26 14:16:51;;;;;;;36.93;28.73;;;;;;;;;;4956501;28;20193;-80
2021/12/26 14:19:18;;;;;;;147.60;89.77;;;;;;;;;;4956622;28;20304;-79
2021/12/26 14:21:48;;;;;;;38.70;27.73;;;;;;;;;;4956085;28;20241;-82
2021/12/26 14:24:20;;;;;;;28.13;23.50;;;;;;;;;;4955756;28;20233;-83
2021/12/26 14:26:47;;;;;;;22.03;18.00;;;;;;;;;;4930507;29;20719;-80
2021/12/26 14:29:17;;;;;;;16.13;13.70;;;;;;;;;;4931320;29;20727;-80
2021/12/26 14:31:47;;;;;;;13.97;12.33;;;;;;;;;;4920318;29;20205;-80
2021/12/26 14:34:17;;;;;;;15.33;11.43;;;;;;;;;;4925951;29;20198;-81